sensor_id;sensor_type;location;lat;lon;timestamp;temperature;humidity
19864;DHT22;10094;48.820;9.226;2022-08-01T00:04:06;23.50;81.70
19864;DHT22;10094;48.820;9.226;2022-08-01T00:10:49;23.40;82.70
19864;DHT22;10094;48.820;9.226;2022-08-01T00:17:31;23.40;84.90
19864;DHT22;10094;48.820;9.226;2022-08-01T00:24:14;23.30;83.00
19864;DHT22;10094;48.820;9.226;2022-08-01T00:30:59;23.20;83.20
19864;DHT22;10094;48.820;9.226;2022-08-01T00:37:44;23.20;84.30
19864;DHT22;10094;48.820;9.226;2022-08-01T00:44:27;23.10;84.50
19864;DHT22;10094;48.820;9.226;2022-08-01T00:51:10;23.10;84.30
19864;DHT22;10094;48.820;9.226;2022-08-01T00:57:52;23.00;84.30
19864;DHT22;10094;48.820;9.226;2022-08-01T01:04:47;23.00;85.20
19864;DHT22;10094;48.820;9.226;2022-08-01T01:11:36;23.00;85.80
19864;DHT22;10094;48.820;9.226;2022-08-01T01:18:28;23.00;86.80
19864;DHT22;10094;48.820;9.226;2022-08-01T01:39:13;22.70;88.60
19864;DHT22;10094;48.820;9.226;2022-08-01T01:45:57;22.70;89.50
19864;DHT22;10094;48.820;9.226;2022-08-01T01:52:41;22.70;90.10
19864;DHT22;10094;48.820;9.226;2022-08-01T01:59:27;22.70;90.50
19864;DHT22;10094;48.820;9.226;2022-08-01T02:06:13;22.60;90.60
19864;DHT22;10094;48.820;9.226;2022-08-01T02:12:59;22.60;91.20
19864;DHT22;10094;48.820;9.226;2022-08-01T02:19:47;22.60;91.50
19864;DHT22;10094;48.820;9.226;2022-08-01T02:26:30;22.50;92.00
19864;DHT22;10094;48.820;9.226;2022-08-01T02:33:17;22.40;92.80
19864;DHT22;10094;48.820;9.226;2022-08-01T02:40:00;22.30;93.30
19864;DHT22;10094;48.820;9.226;2022-08-01T02:47:00;22.20;93.90
19864;DHT22;10094;48.820;9.226;2022-08-01T02:53:47;22.10;94.30
19864;DHT22;10094;48.820;9.226;2022-08-01T03:00:31;22.00;94.90
19864;DHT22;10094;48.820;9.226;2022-08-01T03:07:52;21.90;94.80
19864;DHT22;10094;48.820;9.226;2022-08-01T03:14:38;21.90;94.90
19864;DHT22;10094;48.820;9.226;2022-08-01T03:21:23;21.90;94.90
19864;DHT22;10094;48.820;9.226;2022-08-01T03:28:07;21.90;95.10
19864;DHT22;10094;48.820;9.226;2022-08-01T03:34:50;21.80;95.50
19864;DHT22;10094;48.820;9.226;2022-08-01T03:41:38;21.70;95.60
19864;DHT22;10094;48.820;9.226;2022-08-01T03:48:26;21.70;95.70
19864;DHT22;10094;48.820;9.226;2022-08-01T03:55:11;21.60;95.60
19864;DHT22;10094;48.820;9.226;2022-08-01T04:01:55;21.60;95.70
19864;DHT22;10094;48.820;9.226;2022-08-01T04:08:39;21.60;95.60
19864;DHT22;10094;48.820;9.226;2022-08-01T04:15:22;21.60;96.00
19864;DHT22;10094;48.820;9.226;2022-08-01T04:22:07;21.60;95.90
19864;DHT22;10094;48.820;9.226;2022-08-01T04:28:51;21.70;96.10
19864;DHT22;10094;48.820;9.226;2022-08-01T04:35:36;21.90;95.90
19864;DHT22;10094;48.820;9.226;2022-08-01T04:42:40;22.10;95.90
19864;DHT22;10094;48.820;9.226;2022-08-01T04:49:24;22.30;95.60
19864;DHT22;10094;48.820;9.226;2022-08-01T04:56:07;22.50;95.50
19864;DHT22;10094;48.820;9.226;2022-08-01T05:02:49;22.60;95.40
19864;DHT22;10094;48.820;9.226;2022-08-01T05:09:52;22.80;95.60
19864;DHT22;10094;48.820;9.226;2022-08-01T05:16:35;23.00;95.40
19864;DHT22;10094;48.820;9.226;2022-08-01T05:23:18;23.40;95.10
19864;DHT22;10094;48.820;9.226;2022-08-01T05:30:21;24.50;93.80
19864;DHT22;10094;48.820;9.226;2022-08-01T05:37:22;28.10;91.00
19864;DHT22;10094;48.820;9.226;2022-08-01T05:44:05;30.60;86.70
19864;DHT22;10094;48.820;9.226;2022-08-01T05:50:48;33.00;83.20
19864;DHT22;10094;48.820;9.226;2022-08-01T05:58:08;34.80;79.30
19864;DHT22;10094;48.820;9.226;2022-08-01T06:04:53;35.50;76.00
19864;DHT22;10094;48.820;9.226;2022-08-01T06:11:36;35.90;75.00
19864;DHT22;10094;48.820;9.226;2022-08-01T06:18:19;35.00;74.90
19864;DHT22;10094;48.820;9.226;2022-08-01T06:25:02;35.70;74.00
19864;DHT22;10094;48.820;9.226;2022-08-01T06:31:47;36.10;73.50
19864;DHT22;10094;48.820;9.226;2022-08-01T06:38:29;37.60;72.20
19864;DHT22;10094;48.820;9.226;2022-08-01T06:45:13;37.30;71.40
19864;DHT22;10094;48.820;9.226;2022-08-01T06:51:55;37.60;70.90
19864;DHT22;10094;48.820;9.226;2022-08-01T06:58:38;39.00;69.70
19864;DHT22;10094;48.820;9.226;2022-08-01T07:05:21;37.20;68.40
19864;DHT22;10094;48.820;9.226;2022-08-01T07:12:04;36.40;70.00
19864;DHT22;10094;48.820;9.226;2022-08-01T07:18:47;38.00;68.80
19864;DHT22;10094;48.820;9.226;2022-08-01T07:25:29;38.60;68.60
19864;DHT22;10094;48.820;9.226;2022-08-01T07:32:12;39.70;67.20
19864;DHT22;10094;48.820;9.226;2022-08-01T07:38:55;38.70;67.60
19864;DHT22;10094;48.820;9.226;2022-08-01T07:45:37;37.80;67.70
19864;DHT22;10094;48.820;9.226;2022-08-01T07:52:27;38.70;67.70
19864;DHT22;10094;48.820;9.226;2022-08-01T07:59:10;37.70;67.60
19864;DHT22;10094;48.820;9.226;2022-08-01T08:05:53;37.10;67.70
19864;DHT22;10094;48.820;9.226;2022-08-01T08:12:41;35.90;68.20
19864;DHT22;10094;48.820;9.226;2022-08-01T08:19:24;36.50;68.30
19864;DHT22;10094;48.820;9.226;2022-08-01T08:26:20;36.60;68.60
19864;DHT22;10094;48.820;9.226;2022-08-01T08:33:03;36.00;68.40
19864;DHT22;10094;48.820;9.226;2022-08-01T08:39:54;35.60;68.60
19864;DHT22;10094;48.820;9.226;2022-08-01T08:46:45;36.20;69.20
19864;DHT22;10094;48.820;9.226;2022-08-01T08:53:29;37.10;68.30
19864;DHT22;10094;48.820;9.226;2022-08-01T09:00:16;34.70;69.30
19864;DHT22;10094;48.820;9.226;2022-08-01T09:06:58;35.60;68.60
19864;DHT22;10094;48.820;9.226;2022-08-01T09:13:41;33.20;70.40
19864;DHT22;10094;48.820;9.226;2022-08-01T09:20:26;32.80;70.80
19864;DHT22;10094;48.820;9.226;2022-08-01T09:27:20;32.20;72.40
19864;DHT22;10094;48.820;9.226;2022-08-01T09:34:06;32.20;71.70
19864;DHT22;10094;48.820;9.226;2022-08-01T09:40:58;33.10;71.00
19864;DHT22;10094;48.820;9.226;2022-08-01T09:48:06;32.40;72.30
19864;DHT22;10094;48.820;9.226;2022-08-01T09:54:57;36.40;69.80
19864;DHT22;10094;48.820;9.226;2022-08-01T10:01:48;34.10;70.20
19864;DHT22;10094;48.820;9.226;2022-08-01T10:08:45;32.00;72.20
19864;DHT22;10094;48.820;9.226;2022-08-01T10:15:30;34.10;70.80
19864;DHT22;10094;48.820;9.226;2022-08-01T10:22:20;37.00;69.50
19864;DHT22;10094;48.820;9.226;2022-08-01T10:29:05;38.80;67.10
19864;DHT22;10094;48.820;9.226;2022-08-01T10:36:08;37.40;67.10
19864;DHT22;10094;48.820;9.226;2022-08-01T10:42:51;35.20;67.80
19864;DHT22;10094;48.820;9.226;2022-08-01T10:49:50;33.90;69.50
19864;DHT22;10094;48.820;9.226;2022-08-01T10:56:45;34.10;68.60
19864;DHT22;10094;48.820;9.226;2022-08-01T11:10:46;31.40;70.60
19864;DHT22;10094;48.820;9.226;2022-08-01T11:31:32;31.40;70.90
19864;DHT22;10094;48.820;9.226;2022-08-01T11:38:24;30.30;72.00
19864;DHT22;10094;48.820;9.226;2022-08-01T11:45:09;30.40;72.20
19864;DHT22;10094;48.820;9.226;2022-08-01T11:51:58;30.50;72.50
19864;DHT22;10094;48.820;9.226;2022-08-01T11:58:40;30.30;72.30
19864;DHT22;10094;48.820;9.226;2022-08-01T12:05:23;30.00;73.00
19864;DHT22;10094;48.820;9.226;2022-08-01T12:12:07;30.00;73.00
19864;DHT22;10094;48.820;9.226;2022-08-01T12:18:50;30.40;72.60
19864;DHT22;10094;48.820;9.226;2022-08-01T12:25:34;30.50;72.40
19864;DHT22;10094;48.820;9.226;2022-08-01T12:32:37;30.70;72.60
19864;DHT22;10094;48.820;9.226;2022-08-01T12:39:20;31.10;72.40
19864;DHT22;10094;48.820;9.226;2022-08-01T12:46:02;30.80;72.90
19864;DHT22;10094;48.820;9.226;2022-08-01T12:52:47;30.30;73.30
19864;DHT22;10094;48.820;9.226;2022-08-01T12:59:30;31.00;72.90
19864;DHT22;10094;48.820;9.226;2022-08-01T13:06:15;31.40;72.40
19864;DHT22;10094;48.820;9.226;2022-08-01T13:12:59;30.60;72.60
19864;DHT22;10094;48.820;9.226;2022-08-01T13:19:46;30.30;72.90
19864;DHT22;10094;48.820;9.226;2022-08-01T13:26:55;31.00;73.00
19864;DHT22;10094;48.820;9.226;2022-08-01T13:33:47;30.80;73.00
19864;DHT22;10094;48.820;9.226;2022-08-01T13:40:41;30.80;72.50
19864;DHT22;10094;48.820;9.226;2022-08-01T13:47:23;30.60;72.30
19864;DHT22;10094;48.820;9.226;2022-08-01T13:54:14;30.70;72.80
19864;DHT22;10094;48.820;9.226;2022-08-01T14:09:24;30.40;73.20
19864;DHT22;10094;48.820;9.226;2022-08-01T14:16:13;30.70;73.20
19864;DHT22;10094;48.820;9.226;2022-08-01T14:22:56;30.90;72.60
19864;DHT22;10094;48.820;9.226;2022-08-01T14:29:39;31.30;72.50
19864;DHT22;10094;48.820;9.226;2022-08-01T14:36:41;31.40;72.20
19864;DHT22;10094;48.820;9.226;2022-08-01T14:43:25;31.60;72.20
19864;DHT22;10094;48.820;9.226;2022-08-01T14:50:15;31.50;72.40
19864;DHT22;10094;48.820;9.226;2022-08-01T14:56:57;31.40;72.20
19864;DHT22;10094;48.820;9.226;2022-08-01T15:03:40;31.40;72.20
19864;DHT22;10094;48.820;9.226;2022-08-01T15:10:23;31.30;72.40
19864;DHT22;10094;48.820;9.226;2022-08-01T15:17:05;30.60;72.40
19864;DHT22;10094;48.820;9.226;2022-08-01T15:23:49;29.90;73.60
19864;DHT22;10094;48.820;9.226;2022-08-01T15:30:32;30.40;73.00
19864;DHT22;10094;48.820;9.226;2022-08-01T15:37:15;30.40;72.90
19864;DHT22;10094;48.820;9.226;2022-08-01T15:43:57;30.70;73.10
19864;DHT22;10094;48.820;9.226;2022-08-01T15:50:40;30.70;72.50
19864;DHT22;10094;48.820;9.226;2022-08-01T15:57:22;30.50;72.40
19864;DHT22;10094;48.820;9.226;2022-08-01T16:04:05;30.20;72.40
19864;DHT22;10094;48.820;9.226;2022-08-01T16:10:48;30.20;72.70
19864;DHT22;10094;48.820;9.226;2022-08-01T16:17:31;30.10;72.60
19864;DHT22;10094;48.820;9.226;2022-08-01T16:24:13;29.80;72.90
19864;DHT22;10094;48.820;9.226;2022-08-01T16:30:56;29.90;73.20
19864;DHT22;10094;48.820;9.226;2022-08-01T16:37:58;30.00;73.20
19864;DHT22;10094;48.820;9.226;2022-08-01T16:44:41;30.00;73.00
19864;DHT22;10094;48.820;9.226;2022-08-01T16:51:26;29.40;73.70
19864;DHT22;10094;48.820;9.226;2022-08-01T16:58:32;29.10;73.90
19864;DHT22;10094;48.820;9.226;2022-08-01T17:05:14;29.10;74.30
19864;DHT22;10094;48.820;9.226;2022-08-01T17:12:15;28.80;74.20
19864;DHT22;10094;48.820;9.226;2022-08-01T17:19:03;28.70;74.40
19864;DHT22;10094;48.820;9.226;2022-08-01T17:25:47;28.70;74.90
19864;DHT22;10094;48.820;9.226;2022-08-01T17:32:29;28.50;75.20
19864;DHT22;10094;48.820;9.226;2022-08-01T17:39:12;28.40;75.10
19864;DHT22;10094;48.820;9.226;2022-08-01T17:45:54;28.60;75.20
19864;DHT22;10094;48.820;9.226;2022-08-01T17:52:38;28.50;75.20
19864;DHT22;10094;48.820;9.226;2022-08-01T17:59:21;28.20;75.60
19864;DHT22;10094;48.820;9.226;2022-08-01T18:06:03;27.90;76.20
19864;DHT22;10094;48.820;9.226;2022-08-01T18:12:46;27.60;76.70
19864;DHT22;10094;48.820;9.226;2022-08-01T18:19:28;27.50;77.10
19864;DHT22;10094;48.820;9.226;2022-08-01T18:26:11;27.30;77.90
19864;DHT22;10094;48.820;9.226;2022-08-01T18:32:54;27.20;78.00
19864;DHT22;10094;48.820;9.226;2022-08-01T18:39:37;27.10;78.80
19864;DHT22;10094;48.820;9.226;2022-08-01T18:46:20;26.90;79.70
19864;DHT22;10094;48.820;9.226;2022-08-01T18:53:02;26.80;80.30
19864;DHT22;10094;48.820;9.226;2022-08-01T18:59:45;26.90;80.50
19864;DHT22;10094;48.820;9.226;2022-08-01T19:06:27;26.90;81.40
19864;DHT22;10094;48.820;9.226;2022-08-01T19:13:10;26.80;82.20
19864;DHT22;10094;48.820;9.226;2022-08-01T19:19:54;26.60;82.10
19864;DHT22;10094;48.820;9.226;2022-08-01T19:26:39;26.60;82.30
19864;DHT22;10094;48.820;9.226;2022-08-01T19:33:26;26.50;83.10
19864;DHT22;10094;48.820;9.226;2022-08-01T19:40:11;26.40;82.80
19864;DHT22;10094;48.820;9.226;2022-08-01T19:47:09;26.30;83.30
19864;DHT22;10094;48.820;9.226;2022-08-01T19:53:53;26.20;83.40
19864;DHT22;10094;48.820;9.226;2022-08-01T20:00:37;26.20;83.30
19864;DHT22;10094;48.820;9.226;2022-08-01T20:07:57;26.20;83.40
19864;DHT22;10094;48.820;9.226;2022-08-01T20:14:41;26.20;83.10
19864;DHT22;10094;48.820;9.226;2022-08-01T22:40:22;20.30;99.90
19864;DHT22;10094;48.820;9.226;2022-08-01T22:47:06;20.10;99.90
19864;DHT22;10094;48.820;9.226;2022-08-01T22:54:12;19.90;99.90
19864;DHT22;10094;48.820;9.226;2022-08-01T23:00:59;19.90;99.90
19864;DHT22;10094;48.820;9.226;2022-08-01T23:08:25;20.00;99.90
19864;DHT22;10094;48.820;9.226;2022-08-01T23:15:10;19.90;99.90
19864;DHT22;10094;48.820;9.226;2022-08-01T23:21:53;20.00;99.90
19864;DHT22;10094;48.820;9.226;2022-08-01T23:28:40;20.10;99.90
19864;DHT22;10094;48.820;9.226;2022-08-01T23:35:24;20.30;99.90
19864;DHT22;10094;48.820;9.226;2022-08-01T23:42:07;20.00;99.90
19864;DHT22;10094;48.820;9.226;2022-08-01T23:48:50;19.80;99.90
19864;DHT22;10094;48.820;9.226;2022-08-01T23:55:33;19.80;99.90
